createdAt,value
2022-12-03T00:00:38.096Z,97734.06
2022-12-03T00:03:04.747Z,97754.31
2022-12-03T00:05:31.497Z,97747.75
2022-12-03T00:07:58.163Z,97755.81
2022-12-03T00:10:24.973Z,97757.19
2022-12-03T00:12:51.547Z,97763.22
2022-12-03T00:15:18.183Z,97766.19
2022-12-03T00:17:44.794Z,97752.34
2022-12-03T00:20:18.991Z,97762.16
2022-12-03T00:22:45.567Z,97766.72
2022-12-03T00:25:12.436Z,97763.09
2022-12-03T00:27:39.017Z,97718.41
2022-12-03T00:30:06.595Z,97767.41
2022-12-03T00:32:33.126Z,97762.81
2022-12-03T00:34:59.717Z,97761.75
2022-12-03T00:37:26.357Z,97681.75
2022-12-03T00:39:53.026Z,97743.03
2022-12-03T00:42:19.558Z,97769.03
2022-12-03T00:44:46.136Z,97770.69
2022-12-03T00:47:13.016Z,97789.59
2022-12-03T00:49:39.620Z,97781.84
2022-12-03T00:52:06.187Z,97782.84
2022-12-03T00:54:32.873Z,97790.03
2022-12-03T00:56:59.542Z,97701.31
2022-12-03T00:59:26.163Z,97806.94
2022-12-03T01:01:52.847Z,97749.03
2022-12-03T01:04:19.628Z,97802.56
2022-12-03T01:06:46.260Z,97787.19
2022-12-03T01:09:12.948Z,97800.09
2022-12-03T01:11:39.696Z,97760.66
2022-12-03T01:14:12.023Z,97803.69
2022-12-03T01:16:39.317Z,97759.88
2022-12-03T01:19:07.173Z,97761.81
2022-12-03T01:21:34.232Z,97807.25
2022-12-03T01:24:00.910Z,97810.16
2022-12-03T01:26:27.580Z,97816.16
2022-12-03T01:28:54.150Z,97813.75
2022-12-03T01:31:39.649Z,97817.13
2022-12-03T01:34:06.774Z,97814.00
2022-12-03T01:36:36.332Z,97815.56
2022-12-03T01:39:03.931Z,97820.50
2022-12-03T01:41:31.986Z,97827.91
2022-12-03T01:43:59.413Z,97821.78
2022-12-03T01:46:35.060Z,97825.16
2022-12-03T01:49:01.733Z,97816.31
2022-12-03T01:51:29.816Z,97824.13
2022-12-03T01:54:04.611Z,97743.38
2022-12-03T01:56:31.218Z,97823.94
2022-12-03T01:58:57.872Z,97815.84
2022-12-03T02:01:24.504Z,97776.69
2022-12-03T02:03:51.132Z,97823.13
2022-12-03T02:06:22.963Z,97780.41
2022-12-03T02:08:51.144Z,97822.00
2022-12-03T02:11:33.218Z,97816.97
2022-12-03T02:14:03.276Z,97818.94
2022-12-03T02:16:30.808Z,97819.41
2022-12-03T02:18:58.548Z,97804.66
2022-12-03T02:21:35.936Z,97821.13
2022-12-03T02:24:16.723Z,97806.56
2022-12-03T02:26:43.381Z,97829.69
2022-12-03T02:29:10.032Z,97821.19
2022-12-03T02:31:36.685Z,97833.69
2022-12-03T02:34:11.005Z,97823.59
2022-12-03T02:36:38.353Z,97823.25
2022-12-03T02:39:05.479Z,97829.09
2022-12-03T02:41:51.169Z,97826.47
2022-12-03T02:44:17.745Z,97817.75
2022-12-03T02:46:44.492Z,97828.28
2022-12-03T02:49:11.227Z,97842.06
2022-12-03T02:51:37.844Z,97799.53
2022-12-03T02:54:04.647Z,97830.44
2022-12-03T02:56:33.089Z,97834.09
2022-12-03T02:59:03.791Z,97795.94
2022-12-03T03:01:30.787Z,97837.63
2022-12-03T03:03:58.480Z,97838.28
2022-12-03T03:06:25.334Z,97838.56
2022-12-03T03:08:52.421Z,97851.50
2022-12-03T03:11:19.218Z,97841.53
2022-12-03T03:13:46.174Z,97838.72
2022-12-03T03:16:12.921Z,97817.69
2022-12-03T03:18:40.121Z,97843.06
2022-12-03T03:21:07.386Z,97851.16
2022-12-03T03:23:34.351Z,97849.16
2022-12-03T03:26:06.074Z,97847.56
2022-12-03T03:28:36.604Z,97853.56
2022-12-03T03:31:05.519Z,97853.50
2022-12-03T03:33:32.884Z,97820.09
2022-12-03T03:36:00.566Z,97852.72
2022-12-03T03:38:29.095Z,97860.19
2022-12-03T03:40:58.066Z,97851.00
2022-12-03T03:43:25.222Z,97862.13
2022-12-03T03:45:53.759Z,97861.56
2022-12-03T03:48:22.055Z,97840.91
2022-12-03T03:50:50.827Z,97797.72
2022-12-03T03:53:18.090Z,97869.59
2022-12-03T03:55:45.180Z,97857.78
2022-12-03T03:58:11.950Z,97856.31
2022-12-03T04:00:39.053Z,97860.03
2022-12-03T04:03:06.335Z,97806.31
2022-12-03T04:05:33.242Z,97827.69
2022-12-03T04:08:00.000Z,97861.34
2022-12-03T04:10:45.257Z,97866.66
2022-12-03T04:13:11.841Z,97878.81
2022-12-03T04:15:38.408Z,97869.28
2022-12-03T04:18:23.384Z,97875.75
2022-12-03T04:20:49.998Z,97875.75
2022-12-03T04:23:16.605Z,97876.56
2022-12-03T04:26:02.102Z,97821.19
2022-12-03T04:28:46.932Z,97871.19
2022-12-03T04:31:31.935Z,97851.31
2022-12-03T04:34:16.844Z,97833.31
2022-12-03T04:36:43.490Z,97884.34
2022-12-03T04:39:10.105Z,97860.69
2022-12-03T04:41:36.654Z,97875.09
2022-12-03T04:44:21.816Z,97825.91
2022-12-03T04:46:48.356Z,97880.44
2022-12-03T04:49:14.963Z,97875.91
2022-12-03T04:51:41.538Z,97869.13
2022-12-03T04:54:08.125Z,97785.28
2022-12-03T04:56:34.731Z,97880.75
2022-12-03T04:59:01.464Z,97888.88
2022-12-03T05:01:28.140Z,97886.91
2022-12-03T05:03:54.784Z,97891.72
2022-12-03T05:06:21.921Z,97854.16
2022-12-03T05:08:48.656Z,97901.28
2022-12-03T05:11:15.248Z,97907.44
2022-12-03T05:13:43.128Z,97903.38
2022-12-03T05:16:10.510Z,97904.38
2022-12-03T05:18:37.317Z,97903.06
2022-12-03T05:21:04.105Z,97898.69
2022-12-03T05:23:30.722Z,97872.59
2022-12-03T05:25:57.252Z,97900.81
2022-12-03T05:28:24.386Z,97909.22
2022-12-03T05:30:51.671Z,97907.94
2022-12-03T05:33:18.671Z,97909.91
2022-12-03T05:35:45.227Z,97913.78
2022-12-03T05:38:11.908Z,97920.91
2022-12-03T05:40:38.614Z,97917.88
2022-12-03T05:43:05.369Z,97857.47
2022-12-03T05:45:34.519Z,97917.19
2022-12-03T05:48:01.860Z,97916.34
2022-12-03T05:50:30.927Z,97933.38
2022-12-03T05:52:58.331Z,97914.72
2022-12-03T05:55:25.879Z,97914.72
2022-12-03T05:57:52.700Z,97914.44
2022-12-03T06:00:25.053Z,97917.53
2022-12-03T06:02:52.026Z,97917.63
2022-12-03T06:05:19.757Z,97924.63
2022-12-03T06:07:48.046Z,97925.06
2022-12-03T06:10:16.819Z,97926.22
2022-12-03T06:12:43.671Z,97926.34
2022-12-03T06:15:11.232Z,97938.34
2022-12-03T06:17:37.995Z,97884.28
2022-12-03T06:20:05.108Z,97892.66
2022-12-03T06:22:31.670Z,97944.97
2022-12-03T06:25:03.413Z,97947.88
2022-12-03T06:27:32.906Z,97929.09
2022-12-03T06:29:59.660Z,97950.59
2022-12-03T06:32:26.273Z,97954.19
2022-12-03T06:34:53.362Z,97958.53
2022-12-03T06:37:20.078Z,97941.88
2022-12-03T06:39:46.627Z,97954.19
2022-12-03T06:42:13.211Z,97947.50
2022-12-03T06:44:39.842Z,97952.69
2022-12-03T06:47:06.425Z,97954.50
2022-12-03T06:49:33.264Z,97924.19
2022-12-03T06:51:59.889Z,97942.28
2022-12-03T06:54:26.511Z,97958.81
2022-12-03T06:56:53.178Z,97950.69
2022-12-03T06:59:19.793Z,97939.66
2022-12-03T07:01:46.426Z,97983.84
2022-12-03T07:04:13.105Z,97974.97
2022-12-03T07:06:39.650Z,97962.28
2022-12-03T07:09:06.299Z,97961.25
2022-12-03T07:11:32.948Z,97961.72
2022-12-03T07:14:05.114Z,97966.03
2022-12-03T07:16:32.861Z,97972.63
2022-12-03T07:18:59.559Z,97964.44
2022-12-03T07:21:26.114Z,97966.34
2022-12-03T07:23:52.661Z,97881.72
2022-12-03T07:26:19.374Z,97968.50
2022-12-03T07:28:48.312Z,97971.59
2022-12-03T07:31:15.438Z,97910.47
2022-12-03T07:33:42.444Z,97966.78
2022-12-03T07:36:09.897Z,97970.75
2022-12-03T07:38:36.558Z,97968.81
2022-12-03T07:41:03.367Z,97968.22
2022-12-03T07:43:29.962Z,97963.38
2022-12-03T07:45:56.572Z,97960.84
2022-12-03T07:48:23.170Z,97960.22
2022-12-03T07:50:49.785Z,97966.94
2022-12-03T07:53:16.396Z,97972.13
2022-12-03T07:55:43.118Z,97961.25
2022-12-03T07:58:09.778Z,97968.16
2022-12-03T08:00:36.377Z,97918.91
2022-12-03T08:03:03.182Z,97910.00
2022-12-03T08:05:29.938Z,97971.91
2022-12-03T08:07:56.905Z,97972.84
2022-12-03T08:10:25.745Z,97973.13
2022-12-03T08:12:53.756Z,97901.13
2022-12-03T08:15:25.317Z,97977.78
2022-12-03T08:17:55.893Z,97971.44
2022-12-03T08:20:25.056Z,97972.31
2022-12-03T08:22:53.185Z,97891.28
2022-12-03T08:25:27.382Z,97979.78
2022-12-03T08:28:03.411Z,97975.63
2022-12-03T08:30:29.990Z,97889.13
2022-12-03T08:32:58.533Z,97967.13
2022-12-03T08:35:28.076Z,97977.31
2022-12-03T08:38:00.790Z,97962.91
2022-12-03T08:40:36.361Z,97985.66
2022-12-03T08:43:18.324Z,97960.69
2022-12-03T08:45:45.416Z,97975.53
2022-12-03T08:48:27.177Z,97966.78
2022-12-03T08:50:56.581Z,97929.59
2022-12-03T08:53:37.012Z,97974.84
2022-12-03T08:56:13.735Z,97946.47
2022-12-03T08:58:46.179Z,97977.75
2022-12-03T09:01:12.724Z,97976.47
2022-12-03T09:03:49.005Z,97856.06
2022-12-03T09:06:15.734Z,97975.00
2022-12-03T09:08:42.274Z,97949.13
2022-12-03T09:11:08.892Z,97968.81
2022-12-03T09:13:35.520Z,97964.88
2022-12-03T09:16:02.095Z,97962.81
2022-12-03T09:18:28.681Z,97921.94
2022-12-03T09:20:56.473Z,97964.91
2022-12-03T09:23:23.606Z,97916.56
2022-12-03T09:25:50.308Z,97967.03
2022-12-03T09:28:17.086Z,97950.63
2022-12-03T09:30:43.844Z,97877.34
2022-12-03T09:33:10.670Z,97961.06
2022-12-03T09:35:37.275Z,97956.78
2022-12-03T09:38:03.859Z,97883.22
2022-12-03T09:40:30.470Z,97945.38
2022-12-03T09:43:00.882Z,97940.41
2022-12-03T09:45:27.457Z,97946.88
2022-12-03T09:47:55.063Z,97938.31
2022-12-03T09:50:26.633Z,97936.31
2022-12-03T09:52:56.730Z,97938.22
2022-12-03T09:55:26.858Z,97941.97
2022-12-03T09:57:54.838Z,97940.63
2022-12-03T10:00:28.465Z,97930.03
2022-12-03T10:02:58.138Z,97923.06
2022-12-03T10:05:24.996Z,97888.47
2022-12-03T10:07:52.863Z,97926.31
2022-12-03T10:10:25.178Z,97919.03
2022-12-03T10:12:52.773Z,97943.00
2022-12-03T10:15:23.007Z,97914.22
2022-12-03T10:17:51.695Z,97919.28
2022-12-03T10:20:20.470Z,97840.50
2022-12-03T10:22:48.878Z,97909.38
2022-12-03T10:25:19.254Z,97889.66
2022-12-03T10:28:03.879Z,97905.94
2022-12-03T10:30:30.704Z,97905.50
2022-12-03T10:32:59.079Z,97907.88
2022-12-03T10:35:37.707Z,97901.00
2022-12-03T10:38:19.703Z,97896.97
2022-12-03T10:40:46.525Z,97905.00
2022-12-03T10:43:24.971Z,97906.84
2022-12-03T10:46:11.213Z,97894.31
2022-12-03T10:48:38.513Z,97907.75
2022-12-03T10:51:10.378Z,97854.94
2022-12-03T10:53:40.564Z,97874.25
2022-12-03T10:56:13.788Z,97897.16
2022-12-03T10:58:40.649Z,97895.81
2022-12-03T11:01:16.205Z,97903.44
2022-12-03T11:03:43.147Z,97887.59
2022-12-03T11:06:18.787Z,97893.09
2022-12-03T11:08:56.263Z,97893.22
2022-12-03T11:11:31.056Z,97891.28
2022-12-03T11:14:02.357Z,97885.75
2022-12-03T11:16:41.205Z,97894.25
2022-12-03T11:19:17.539Z,97894.53
2022-12-03T11:22:05.877Z,97881.25
2022-12-03T11:24:37.430Z,97887.06
2022-12-03T11:27:03.944Z,97888.13
2022-12-03T11:29:49.418Z,97885.69
2022-12-03T11:32:43.484Z,97892.03
2022-12-03T11:35:13.051Z,97883.41
2022-12-03T11:37:39.736Z,97885.47
2022-12-03T11:40:18.533Z,97885.78
2022-12-03T11:42:47.328Z,97875.72
2022-12-03T11:45:19.246Z,97882.66
2022-12-03T11:47:59.504Z,97886.53
2022-12-03T11:50:51.062Z,97887.25
2022-12-03T11:53:22.691Z,97892.50
2022-12-03T11:56:06.347Z,97863.50
2022-12-03T11:58:33.571Z,97884.84
2022-12-03T12:01:03.622Z,97889.91
2022-12-03T12:03:36.089Z,97879.44
2022-12-03T12:06:16.041Z,97871.34
2022-12-03T12:08:51.628Z,97885.63
2022-12-03T12:11:31.890Z,97887.66
2022-12-03T12:14:00.958Z,97874.25
2022-12-03T12:16:52.085Z,97879.88
2022-12-03T12:19:38.748Z,97881.03
2022-12-03T12:22:31.907Z,97874.59
2022-12-03T12:25:01.458Z,97864.09
2022-12-03T12:27:45.213Z,97874.00
2022-12-03T12:30:15.918Z,97876.19
2022-12-03T12:32:50.110Z,97878.44
2022-12-03T12:35:24.578Z,97874.69
2022-12-03T12:38:00.092Z,97873.75
2022-12-03T12:40:32.910Z,97884.69
2022-12-03T12:43:20.302Z,97887.97
2022-12-03T12:45:51.448Z,97869.91
2022-12-03T12:48:27.160Z,97881.66
2022-12-03T12:51:00.193Z,97873.16
2022-12-03T12:53:31.565Z,97860.59
2022-12-03T12:56:20.698Z,97880.47
2022-12-03T12:58:47.403Z,97880.88
2022-12-03T13:01:24.941Z,97877.44
2022-12-03T13:03:52.665Z,97873.03
2022-12-03T13:06:25.851Z,97872.53
2022-12-03T13:08:53.667Z,97885.66
2022-12-03T13:11:42.271Z,97880.59
2022-12-03T13:14:19.332Z,97878.28
2022-12-03T13:16:47.838Z,97821.81
2022-12-03T13:19:28.673Z,97886.16
2022-12-03T13:22:16.883Z,97879.47
2022-12-03T13:24:45.434Z,97898.63
2022-12-03T13:27:17.809Z,97894.25
2022-12-03T13:29:50.740Z,97884.34
2022-12-03T13:32:27.639Z,97889.13
2022-12-03T13:35:00.991Z,97900.03
2022-12-03T13:37:28.259Z,97890.53
2022-12-03T13:39:57.426Z,97893.09
2022-12-03T13:42:39.512Z,97892.66
2022-12-03T13:45:31.378Z,97890.81
2022-12-03T13:48:02.980Z,97892.75
2022-12-03T13:50:46.010Z,97895.88
2022-12-03T13:53:38.750Z,97900.16
2022-12-03T13:56:27.883Z,97899.34
2022-12-03T13:58:56.273Z,97774.78
2022-12-03T14:01:23.164Z,97859.19
2022-12-03T14:03:50.210Z,97910.88
2022-12-03T14:06:16.785Z,97913.19
2022-12-03T14:08:43.663Z,97903.13
2022-12-03T14:11:30.575Z,97847.66
2022-12-03T14:13:57.362Z,97904.97
2022-12-03T14:16:24.521Z,97900.22
2022-12-03T14:18:51.255Z,97917.78
2022-12-03T14:21:18.467Z,97918.38
2022-12-03T14:23:45.195Z,97913.91
2022-12-03T14:26:11.817Z,97878.78
2022-12-03T14:28:38.422Z,97909.97
2022-12-03T14:31:05.218Z,97910.94
2022-12-03T14:33:31.768Z,97915.44
2022-12-03T14:35:58.872Z,97916.47
2022-12-03T14:38:25.480Z,97916.34
2022-12-03T14:40:52.076Z,97919.81
2022-12-03T14:43:18.610Z,97921.88
2022-12-03T14:45:45.428Z,97903.84
2022-12-03T14:48:12.130Z,97925.06
2022-12-03T14:50:38.694Z,97930.03
2022-12-03T14:53:05.226Z,97929.47
2022-12-03T14:55:31.888Z,97928.28
2022-12-03T14:57:58.470Z,97862.28
2022-12-03T15:00:25.060Z,97945.13
2022-12-03T15:02:51.696Z,97906.13
2022-12-03T15:05:22.110Z,97939.13
2022-12-03T15:07:53.219Z,97942.34
2022-12-03T15:10:19.810Z,97933.63
2022-12-03T15:12:46.388Z,97938.69
2022-12-03T15:15:12.968Z,97918.84
2022-12-03T15:17:39.646Z,97936.94
2022-12-03T15:20:08.163Z,97937.28
2022-12-03T15:22:34.746Z,97939.84
2022-12-03T15:25:02.722Z,97921.38
2022-12-03T15:27:29.380Z,97934.31
2022-12-03T15:29:56.149Z,97944.72
2022-12-03T15:32:22.935Z,97949.75
2022-12-03T15:34:51.338Z,97924.38
2022-12-03T15:37:18.349Z,97951.59
2022-12-03T15:39:48.517Z,97933.38
2022-12-03T15:42:15.551Z,97951.47
2022-12-03T15:44:42.115Z,97954.50
2022-12-03T15:47:08.697Z,97953.72
2022-12-03T15:49:35.220Z,97935.09
2022-12-03T15:52:01.810Z,97895.34
2022-12-03T15:54:28.385Z,97951.25
2022-12-03T15:56:57.417Z,97891.69
2022-12-03T15:59:24.819Z,97961.69
2022-12-03T16:01:51.528Z,97899.09
2022-12-03T16:04:18.201Z,97958.16
2022-12-03T16:06:44.774Z,97973.16
2022-12-03T16:09:11.385Z,97956.78
2022-12-03T16:11:37.950Z,97965.34
2022-12-03T16:14:04.512Z,97964.31
2022-12-03T16:16:31.196Z,97970.53
2022-12-03T16:18:57.894Z,97846.22
2022-12-03T16:21:27.095Z,97971.78
2022-12-03T16:23:54.378Z,97972.25
2022-12-03T16:26:21.173Z,97967.16
2022-12-03T16:28:47.808Z,97980.75
2022-12-03T16:31:14.468Z,97980.22
2022-12-03T16:33:41.089Z,97974.31
2022-12-03T16:36:08.108Z,97982.13
2022-12-03T16:38:34.758Z,97981.31
2022-12-03T16:41:02.196Z,97920.53
2022-12-03T16:43:28.790Z,97988.06
2022-12-03T16:46:24.556Z,97987.13
2022-12-03T16:48:52.316Z,97975.78
2022-12-03T16:51:19.729Z,97988.00
2022-12-03T16:53:46.954Z,97991.25
2022-12-03T16:56:13.827Z,97947.28
2022-12-03T16:58:40.717Z,97927.91
2022-12-03T17:01:07.391Z,98003.44
2022-12-03T17:03:34.386Z,97935.78
2022-12-03T17:06:01.499Z,98000.47
2022-12-03T17:08:28.420Z,97968.13
2022-12-03T17:10:55.171Z,97994.13
2022-12-03T17:13:23.252Z,98005.84
2022-12-03T17:15:50.528Z,98013.53
2022-12-03T17:18:17.400Z,97998.16
2022-12-03T17:20:44.014Z,97965.94
2022-12-03T17:23:11.843Z,97915.81
2022-12-03T17:25:38.474Z,97994.66
2022-12-03T17:28:05.140Z,98012.47
2022-12-03T17:30:31.782Z,97922.31
2022-12-03T17:32:58.339Z,98020.19
2022-12-03T17:35:25.265Z,98017.56
2022-12-03T17:37:51.818Z,98027.53
2022-12-03T17:40:18.484Z,98025.97
2022-12-03T17:42:45.113Z,98034.00
2022-12-03T17:45:11.955Z,98029.50
2022-12-03T17:47:38.775Z,98038.75
2022-12-03T17:50:06.183Z,98027.41
2022-12-03T17:52:32.759Z,98026.53
2022-12-03T17:55:11.249Z,97966.19
2022-12-03T17:57:39.721Z,98044.16
2022-12-03T18:00:07.270Z,98037.50
2022-12-03T18:02:33.844Z,98017.69
2022-12-03T18:05:00.453Z,98043.78
2022-12-03T18:07:27.124Z,98023.69
2022-12-03T18:09:53.959Z,98049.22
2022-12-03T18:12:20.843Z,98052.75
2022-12-03T18:14:47.388Z,98047.22
2022-12-03T18:17:14.422Z,98051.59
2022-12-03T18:19:41.011Z,98049.78
2022-12-03T18:22:07.799Z,98052.06
2022-12-03T18:24:34.802Z,98008.09
2022-12-03T18:27:01.326Z,98056.72
2022-12-03T18:29:28.364Z,97998.94
2022-12-03T18:31:55.083Z,98038.44
2022-12-03T18:34:21.709Z,98058.56
2022-12-03T18:36:48.970Z,98066.97
2022-12-03T18:39:28.045Z,98063.75
2022-12-03T18:41:54.729Z,98066.56
2022-12-03T18:44:21.513Z,98069.34
2022-12-03T18:46:55.495Z,98074.94
2022-12-03T18:49:22.390Z,98043.75
2022-12-03T18:51:51.199Z,98008.84
2022-12-03T18:54:20.979Z,98063.59
2022-12-03T18:56:47.591Z,98074.53
2022-12-03T18:59:14.191Z,98064.25
2022-12-03T19:01:40.857Z,98064.41
2022-12-03T19:04:09.514Z,98065.84
2022-12-03T19:06:36.181Z,98063.31
2022-12-03T19:09:02.827Z,98039.16
2022-12-03T19:11:29.398Z,97999.47
2022-12-03T19:13:57.398Z,98072.84
2022-12-03T19:16:24.508Z,98069.94
2022-12-03T19:18:53.113Z,98045.19
2022-12-03T19:21:19.762Z,98068.84
2022-12-03T19:24:16.011Z,98070.78
2022-12-03T19:26:33.045Z,98066.91
2022-12-03T19:28:59.677Z,98072.72
2022-12-03T19:31:26.300Z,98071.25
2022-12-03T19:33:54.345Z,98065.41
2022-12-03T19:36:22.579Z,98073.69
2022-12-03T19:38:56.629Z,98066.84
2022-12-03T19:41:27.412Z,98072.34
2022-12-03T19:43:56.018Z,98065.50
2022-12-03T19:46:25.907Z,98072.16
2022-12-03T19:48:54.063Z,98079.78
2022-12-03T19:51:34.209Z,98028.94
2022-12-03T19:54:01.794Z,98074.53
2022-12-03T19:56:30.473Z,98037.47
2022-12-03T19:58:57.453Z,98070.44
2022-12-03T20:01:27.818Z,98078.31
2022-12-03T20:03:56.209Z,98072.00
2022-12-03T20:06:25.433Z,98075.28
2022-12-03T20:08:57.060Z,98063.97
2022-12-03T20:11:27.041Z,98077.56
2022-12-03T20:13:56.392Z,98076.91
2022-12-03T20:16:23.941Z,98082.56
2022-12-03T20:18:51.767Z,98079.47
2022-12-03T20:21:19.538Z,98083.41
2022-12-03T20:23:47.158Z,98047.16
2022-12-03T20:26:19.086Z,98032.19
2022-12-03T20:28:48.077Z,98087.06
2022-12-03T20:31:17.424Z,98092.44
2022-12-03T20:33:46.682Z,98100.28
2022-12-03T20:36:14.667Z,98083.47
2022-12-03T20:38:41.501Z,98093.47
2022-12-03T20:41:11.045Z,98095.56
2022-12-03T20:43:37.782Z,98098.16
2022-12-03T20:46:16.942Z,98079.22
2022-12-03T20:48:44.688Z,98152.22
2022-12-03T20:51:14.349Z,98089.78
2022-12-03T20:53:42.058Z,98095.78
2022-12-03T20:56:10.573Z,98095.28
2022-12-03T20:58:37.412Z,98086.84
2022-12-03T21:01:21.188Z,98075.34
2022-12-03T21:03:49.614Z,98097.22
2022-12-03T21:06:16.902Z,98049.56
2022-12-03T21:08:44.074Z,98036.22
2022-12-03T21:11:19.017Z,98084.41
2022-12-03T21:13:46.823Z,98089.44
2022-12-03T21:16:16.252Z,98099.34
2022-12-03T21:18:43.346Z,98061.84
2022-12-03T21:21:12.079Z,98100.97
2022-12-03T21:23:39.427Z,98049.88
2022-12-03T21:26:15.427Z,98105.50
2022-12-03T21:28:44.416Z,98095.31
2022-12-03T21:31:14.539Z,98095.13
2022-12-03T21:33:41.539Z,98076.97
2022-12-03T21:36:08.664Z,98046.78
2022-12-03T21:38:36.204Z,98097.09
2022-12-03T21:41:03.734Z,97988.88
2022-12-03T21:43:30.917Z,98094.94
2022-12-03T21:45:57.594Z,98041.06
2022-12-03T21:48:24.361Z,98100.06
2022-12-03T21:51:12.301Z,98100.69
2022-12-03T21:53:43.475Z,98080.56
2022-12-03T21:56:15.984Z,98062.06
2022-12-03T21:58:43.490Z,98106.88
2022-12-03T22:01:11.719Z,98100.56
2022-12-03T22:03:38.509Z,98073.94
2022-12-03T22:06:05.283Z,98087.06
2022-12-03T22:08:31.792Z,98094.81
2022-12-03T22:10:58.336Z,98101.66
2022-12-03T22:13:24.898Z,98102.09
2022-12-03T22:15:51.520Z,98029.28
2022-12-03T22:18:18.200Z,98066.94
2022-12-03T22:20:44.775Z,98093.28
2022-12-03T22:23:11.298Z,98102.94
2022-12-03T22:25:37.857Z,98095.72
2022-12-03T22:28:04.533Z,98096.38
2022-12-03T22:30:31.231Z,98093.84
2022-12-03T22:32:57.884Z,98073.72
2022-12-03T22:35:24.477Z,98044.78
2022-12-03T22:37:51.108Z,98099.63
2022-12-03T22:40:17.792Z,98096.16
2022-12-03T22:42:50.629Z,98100.06
2022-12-03T22:45:17.599Z,98099.03
2022-12-03T22:47:44.138Z,98094.66
2022-12-03T22:50:10.911Z,98014.03
2022-12-03T22:52:37.526Z,98026.25
2022-12-03T22:55:04.421Z,98101.78
2022-12-03T22:57:31.776Z,98054.84
2022-12-03T22:59:58.367Z,98038.94
2022-12-03T23:02:24.967Z,98099.50
2022-12-03T23:04:55.350Z,98101.72
2022-12-03T23:07:21.924Z,98032.03
2022-12-03T23:09:48.547Z,98094.13
2022-12-03T23:12:15.355Z,98024.34
2022-12-03T23:14:41.926Z,98090.53
2022-12-03T23:17:08.464Z,98030.13
2022-12-03T23:19:35.489Z,98091.78
2022-12-03T23:22:02.046Z,98103.13
2022-12-03T23:24:29.037Z,98062.56
2022-12-03T23:26:55.673Z,98033.16
2022-12-03T23:29:22.401Z,98088.63
2022-12-03T23:31:49.040Z,98102.88
2022-12-03T23:34:15.751Z,98086.06
2022-12-03T23:36:42.572Z,98093.63
2022-12-03T23:39:09.162Z,98094.13
2022-12-03T23:41:36.211Z,98098.63
2022-12-03T23:44:02.801Z,98097.56
2022-12-03T23:46:29.661Z,98089.78
2022-12-03T23:48:58.889Z,98092.41
2022-12-03T23:51:25.772Z,98102.44
2022-12-03T23:53:54.263Z,98098.72
2022-12-03T23:56:26.187Z,97959.00
2022-12-03T23:58:52.812Z,98044.53
